sensor_id;sensor_type;location;lat;lon;timestamp;temperature;humidity
36450;DHT22;22475;51.390;7.180;2023-03-31T00:02:01;13.20;92.50
36450;DHT22;22475;51.390;7.180;2023-03-31T00:04:31;13.20;92.50
36450;DHT22;22475;51.390;7.180;2023-03-31T00:06:58;13.10;92.40
36450;DHT22;22475;51.390;7.180;2023-03-31T00:09:25;13.20;92.40
36450;DHT22;22475;51.390;7.180;2023-03-31T00:11:54;13.20;92.40
36450;DHT22;22475;51.390;7.180;2023-03-31T00:14:21;13.20;92.40
36450;DHT22;22475;51.390;7.180;2023-03-31T00:16:48;13.10;92.40
36450;DHT22;22475;51.390;7.180;2023-03-31T00:19:16;13.20;92.40
36450;DHT22;22475;51.390;7.180;2023-03-31T00:21:46;13.10;92.40
36450;DHT22;22475;51.390;7.180;2023-03-31T00:24:13;13.20;92.40
36450;DHT22;22475;51.390;7.180;2023-03-31T00:26:40;13.20;92.30
36450;DHT22;22475;51.390;7.180;2023-03-31T00:29:10;13.20;92.30
36450;DHT22;22475;51.390;7.180;2023-03-31T00:31:38;13.20;92.30
36450;DHT22;22475;51.390;7.180;2023-03-31T00:34:05;13.20;92.30
36450;DHT22;22475;51.390;7.180;2023-03-31T00:36:33;13.20;92.40
36450;DHT22;22475;51.390;7.180;2023-03-31T00:39:10;13.10;92.30
36450;DHT22;22475;51.390;7.180;2023-03-31T00:41:37;13.20;92.30
36450;DHT22;22475;51.390;7.180;2023-03-31T00:44:08;13.10;92.30
36450;DHT22;22475;51.390;7.180;2023-03-31T00:46:41;13.10;92.30
36450;DHT22;22475;51.390;7.180;2023-03-31T00:49:15;13.20;92.30
36450;DHT22;22475;51.390;7.180;2023-03-31T00:51:47;13.20;92.30
36450;DHT22;22475;51.390;7.180;2023-03-31T00:54:15;13.20;92.30
36450;DHT22;22475;51.390;7.180;2023-03-31T00:56:45;13.10;92.30
36450;DHT22;22475;51.390;7.180;2023-03-31T00:59:13;13.20;92.30
36450;DHT22;22475;51.390;7.180;2023-03-31T01:01:44;13.20;92.30
36450;DHT22;22475;51.390;7.180;2023-03-31T01:04:11;13.20;92.30
36450;DHT22;22475;51.390;7.180;2023-03-31T01:06:47;13.20;92.30
36450;DHT22;22475;51.390;7.180;2023-03-31T01:09:18;13.20;92.20
36450;DHT22;22475;51.390;7.180;2023-03-31T01:11:45;13.20;92.20
36450;DHT22;22475;51.390;7.180;2023-03-31T01:14:13;13.20;92.30
36450;DHT22;22475;51.390;7.180;2023-03-31T01:16:40;13.20;92.30
36450;DHT22;22475;51.390;7.180;2023-03-31T01:19:13;13.10;92.30
36450;DHT22;22475;51.390;7.180;2023-03-31T01:21:55;13.10;92.30
36450;DHT22;22475;51.390;7.180;2023-03-31T01:25:03;13.10;92.40
36450;DHT22;22475;51.390;7.180;2023-03-31T01:28:02;13.10;92.30
36450;DHT22;22475;51.390;7.180;2023-03-31T01:31:06;13.10;92.30
36450;DHT22;22475;51.390;7.180;2023-03-31T01:34:08;13.20;92.40
36450;DHT22;22475;51.390;7.180;2023-03-31T01:39:59;13.20;92.40
36450;DHT22;22475;51.390;7.180;2023-03-31T01:42:34;13.20;92.40
36450;DHT22;22475;51.390;7.180;2023-03-31T01:45:09;13.20;92.40
36450;DHT22;22475;51.390;7.180;2023-03-31T01:47:45;13.10;92.40
36450;DHT22;22475;51.390;7.180;2023-03-31T01:50:19;13.10;92.50
36450;DHT22;22475;51.390;7.180;2023-03-31T01:52:52;13.20;92.50
36450;DHT22;22475;51.390;7.180;2023-03-31T01:55:25;13.20;92.50
36450;DHT22;22475;51.390;7.180;2023-03-31T01:57:58;13.20;92.50
36450;DHT22;22475;51.390;7.180;2023-03-31T02:00:28;13.20;92.50
36450;DHT22;22475;51.390;7.180;2023-03-31T02:03:01;13.10;92.50
36450;DHT22;22475;51.390;7.180;2023-03-31T02:05:34;13.10;92.50
36450;DHT22;22475;51.390;7.180;2023-03-31T02:08:05;13.20;92.50
36450;DHT22;22475;51.390;7.180;2023-03-31T02:10:35;13.20;92.50
36450;DHT22;22475;51.390;7.180;2023-03-31T02:13:04;13.20;92.60
36450;DHT22;22475;51.390;7.180;2023-03-31T02:15:34;13.20;92.60
36450;DHT22;22475;51.390;7.180;2023-03-31T02:18:03;13.20;92.60
36450;DHT22;22475;51.390;7.180;2023-03-31T02:20:36;13.10;92.50
36450;DHT22;22475;51.390;7.180;2023-03-31T02:23:07;13.20;92.60
36450;DHT22;22475;51.390;7.180;2023-03-31T02:25:39;13.20;92.60
36450;DHT22;22475;51.390;7.180;2023-03-31T02:28:13;13.20;92.60
36450;DHT22;22475;51.390;7.180;2023-03-31T02:30:49;13.10;92.60
36450;DHT22;22475;51.390;7.180;2023-03-31T02:33:18;13.20;92.60
36450;DHT22;22475;51.390;7.180;2023-03-31T02:35:45;13.20;92.60
36450;DHT22;22475;51.390;7.180;2023-03-31T02:38:12;13.20;92.60
36450;DHT22;22475;51.390;7.180;2023-03-31T02:40:40;13.20;92.60
36450;DHT22;22475;51.390;7.180;2023-03-31T02:43:07;13.20;92.70
36450;DHT22;22475;51.390;7.180;2023-03-31T02:45:38;13.20;92.70
36450;DHT22;22475;51.390;7.180;2023-03-31T02:48:07;13.20;92.70
36450;DHT22;22475;51.390;7.180;2023-03-31T02:53:26;13.20;92.80
36450;DHT22;22475;51.390;7.180;2023-03-31T02:56:10;13.20;92.80
36450;DHT22;22475;51.390;7.180;2023-03-31T02:59:02;13.20;92.70
36450;DHT22;22475;51.390;7.180;2023-03-31T03:01:48;13.20;92.70
36450;DHT22;22475;51.390;7.180;2023-03-31T03:04:34;13.20;92.80
36450;DHT22;22475;51.390;7.180;2023-03-31T03:07:09;13.20;92.80
36450;DHT22;22475;51.390;7.180;2023-03-31T03:09:44;13.20;92.90
36450;DHT22;22475;51.390;7.180;2023-03-31T03:12:21;13.20;92.90
36450;DHT22;22475;51.390;7.180;2023-03-31T03:14:51;13.20;93.00
36450;DHT22;22475;51.390;7.180;2023-03-31T03:17:22;13.20;93.00
36450;DHT22;22475;51.390;7.180;2023-03-31T03:19:53;13.20;93.00
36450;DHT22;22475;51.390;7.180;2023-03-31T03:22:20;13.20;93.00
36450;DHT22;22475;51.390;7.180;2023-03-31T03:24:47;13.20;93.10
36450;DHT22;22475;51.390;7.180;2023-03-31T03:27:14;13.20;93.10
36450;DHT22;22475;51.390;7.180;2023-03-31T03:29:42;13.20;93.10
36450;DHT22;22475;51.390;7.180;2023-03-31T03:32:09;13.20;93.10
36450;DHT22;22475;51.390;7.180;2023-03-31T03:34:36;13.20;93.10
36450;DHT22;22475;51.390;7.180;2023-03-31T03:37:03;13.20;93.10
36450;DHT22;22475;51.390;7.180;2023-03-31T03:39:30;13.20;93.10
36450;DHT22;22475;51.390;7.180;2023-03-31T03:41:57;13.20;93.10
36450;DHT22;22475;51.390;7.180;2023-03-31T03:44:24;13.20;93.10
36450;DHT22;22475;51.390;7.180;2023-03-31T03:46:52;13.20;93.10
36450;DHT22;22475;51.390;7.180;2023-03-31T03:49:18;13.20;93.10
36450;DHT22;22475;51.390;7.180;2023-03-31T03:51:45;13.20;93.10
36450;DHT22;22475;51.390;7.180;2023-03-31T03:54:12;13.20;93.10
36450;DHT22;22475;51.390;7.180;2023-03-31T03:56:39;13.20;93.10
36450;DHT22;22475;51.390;7.180;2023-03-31T03:59:06;13.20;93.10
36450;DHT22;22475;51.390;7.180;2023-03-31T04:01:33;13.20;93.10
36450;DHT22;22475;51.390;7.180;2023-03-31T04:04:01;13.20;93.10
36450;DHT22;22475;51.390;7.180;2023-03-31T04:06:28;13.20;93.10
36450;DHT22;22475;51.390;7.180;2023-03-31T04:08:55;13.20;93.10
36450;DHT22;22475;51.390;7.180;2023-03-31T04:11:22;13.20;93.10
36450;DHT22;22475;51.390;7.180;2023-03-31T04:13:48;13.20;93.10
36450;DHT22;22475;51.390;7.180;2023-03-31T04:16:15;13.20;93.10
36450;DHT22;22475;51.390;7.180;2023-03-31T04:18:42;13.20;93.10
36450;DHT22;22475;51.390;7.180;2023-03-31T04:21:11;13.20;93.10
36450;DHT22;22475;51.390;7.180;2023-03-31T04:23:40;13.20;93.10
36450;DHT22;22475;51.390;7.180;2023-03-31T04:26:11;13.20;93.10
36450;DHT22;22475;51.390;7.180;2023-03-31T04:28:38;13.20;93.00
36450;DHT22;22475;51.390;7.180;2023-03-31T04:31:09;13.20;93.00
36450;DHT22;22475;51.390;7.180;2023-03-31T04:33:41;13.20;93.00
36450;DHT22;22475;51.390;7.180;2023-03-31T04:36:12;13.20;93.00
36450;DHT22;22475;51.390;7.180;2023-03-31T04:38:43;13.20;93.10
36450;DHT22;22475;51.390;7.180;2023-03-31T04:41:11;13.20;93.10
36450;DHT22;22475;51.390;7.180;2023-03-31T04:43:38;13.20;93.10
36450;DHT22;22475;51.390;7.180;2023-03-31T04:46:05;13.20;93.10
36450;DHT22;22475;51.390;7.180;2023-03-31T04:48:32;13.20;93.10
36450;DHT22;22475;51.390;7.180;2023-03-31T04:50:58;13.20;93.10
36450;DHT22;22475;51.390;7.180;2023-03-31T04:53:27;13.20;93.10
36450;DHT22;22475;51.390;7.180;2023-03-31T04:55:53;13.20;93.10
36450;DHT22;22475;51.390;7.180;2023-03-31T04:58:20;13.20;93.10
36450;DHT22;22475;51.390;7.180;2023-03-31T05:00:47;13.20;93.10
36450;DHT22;22475;51.390;7.180;2023-03-31T05:03:14;13.20;93.10
36450;DHT22;22475;51.390;7.180;2023-03-31T05:05:40;13.20;93.10
36450;DHT22;22475;51.390;7.180;2023-03-31T05:08:07;13.20;93.10
36450;DHT22;22475;51.390;7.180;2023-03-31T05:10:35;13.20;93.10
36450;DHT22;22475;51.390;7.180;2023-03-31T05:13:02;13.20;93.10
36450;DHT22;22475;51.390;7.180;2023-03-31T05:15:29;13.20;93.10
36450;DHT22;22475;51.390;7.180;2023-03-31T05:17:57;13.20;93.10
36450;DHT22;22475;51.390;7.180;2023-03-31T05:20:24;13.20;93.10
36450;DHT22;22475;51.390;7.180;2023-03-31T05:22:50;13.20;93.10
36450;DHT22;22475;51.390;7.180;2023-03-31T05:25:17;13.20;93.10
36450;DHT22;22475;51.390;7.180;2023-03-31T05:27:46;13.20;93.00
36450;DHT22;22475;51.390;7.180;2023-03-31T05:30:13;13.20;93.00
36450;DHT22;22475;51.390;7.180;2023-03-31T05:32:40;13.20;93.00
36450;DHT22;22475;51.390;7.180;2023-03-31T05:35:08;13.20;93.00
36450;DHT22;22475;51.390;7.180;2023-03-31T05:37:34;13.20;93.00
36450;DHT22;22475;51.390;7.180;2023-03-31T05:40:02;13.20;93.00
36450;DHT22;22475;51.390;7.180;2023-03-31T05:42:30;13.20;93.00
36450;DHT22;22475;51.390;7.180;2023-03-31T05:44:58;13.20;93.00
36450;DHT22;22475;51.390;7.180;2023-03-31T05:47:25;13.20;92.90
36450;DHT22;22475;51.390;7.180;2023-03-31T05:49:51;13.20;92.90
36450;DHT22;22475;51.390;7.180;2023-03-31T05:52:18;13.20;92.90
36450;DHT22;22475;51.390;7.180;2023-03-31T05:54:45;13.20;92.90
36450;DHT22;22475;51.390;7.180;2023-03-31T05:57:12;13.20;92.90
36450;DHT22;22475;51.390;7.180;2023-03-31T05:59:39;13.20;92.90
36450;DHT22;22475;51.390;7.180;2023-03-31T06:02:11;13.20;92.90
36450;DHT22;22475;51.390;7.180;2023-03-31T06:04:38;13.20;92.90
36450;DHT22;22475;51.390;7.180;2023-03-31T06:07:05;13.20;92.90
36450;DHT22;22475;51.390;7.180;2023-03-31T06:09:32;13.20;92.90
36450;DHT22;22475;51.390;7.180;2023-03-31T06:11:59;13.20;92.90
36450;DHT22;22475;51.390;7.180;2023-03-31T06:14:27;13.20;92.80
36450;DHT22;22475;51.390;7.180;2023-03-31T06:16:53;13.20;92.80
36450;DHT22;22475;51.390;7.180;2023-03-31T06:19:21;13.20;92.90
36450;DHT22;22475;51.390;7.180;2023-03-31T06:21:49;13.20;92.80
36450;DHT22;22475;51.390;7.180;2023-03-31T06:24:16;13.20;92.80
36450;DHT22;22475;51.390;7.180;2023-03-31T06:26:43;13.20;92.80
36450;DHT22;22475;51.390;7.180;2023-03-31T06:29:10;13.20;92.80
36450;DHT22;22475;51.390;7.180;2023-03-31T06:31:36;13.20;92.80
36450;DHT22;22475;51.390;7.180;2023-03-31T06:34:03;13.20;92.80
36450;DHT22;22475;51.390;7.180;2023-03-31T06:36:32;13.20;92.80
36450;DHT22;22475;51.390;7.180;2023-03-31T06:38:59;13.20;92.80
36450;DHT22;22475;51.390;7.180;2023-03-31T06:41:26;13.20;92.80
36450;DHT22;22475;51.390;7.180;2023-03-31T06:43:52;13.20;93.10
36450;DHT22;22475;51.390;7.180;2023-03-31T06:46:19;13.20;92.80
36450;DHT22;22475;51.390;7.180;2023-03-31T06:48:46;13.20;92.80
36450;DHT22;22475;51.390;7.180;2023-03-31T06:51:13;13.20;92.80
36450;DHT22;22475;51.390;7.180;2023-03-31T06:53:41;13.20;92.80
36450;DHT22;22475;51.390;7.180;2023-03-31T06:56:08;13.20;92.70
36450;DHT22;22475;51.390;7.180;2023-03-31T06:58:35;13.20;92.70
36450;DHT22;22475;51.390;7.180;2023-03-31T07:01:02;13.20;92.70
36450;DHT22;22475;51.390;7.180;2023-03-31T07:03:29;13.20;93.10
36450;DHT22;22475;51.390;7.180;2023-03-31T07:05:56;13.20;92.70
36450;DHT22;22475;51.390;7.180;2023-03-31T07:08:23;13.20;92.70
36450;DHT22;22475;51.390;7.180;2023-03-31T07:10:54;13.20;92.70
36450;DHT22;22475;51.390;7.180;2023-03-31T07:13:22;13.20;92.70
36450;DHT22;22475;51.390;7.180;2023-03-31T07:15:49;13.20;92.70
36450;DHT22;22475;51.390;7.180;2023-03-31T07:18:16;13.20;92.70
36450;DHT22;22475;51.390;7.180;2023-03-31T07:20:47;13.20;92.70
36450;DHT22;22475;51.390;7.180;2023-03-31T07:23:13;13.20;92.80
36450;DHT22;22475;51.390;7.180;2023-03-31T07:25:40;13.20;92.80
36450;DHT22;22475;51.390;7.180;2023-03-31T07:28:08;13.20;92.80
36450;DHT22;22475;51.390;7.180;2023-03-31T07:30:35;13.20;92.80
36450;DHT22;22475;51.390;7.180;2023-03-31T07:33:02;13.20;92.80
36450;DHT22;22475;51.390;7.180;2023-03-31T07:35:29;13.20;92.80
36450;DHT22;22475;51.390;7.180;2023-03-31T07:37:55;13.20;92.80
36450;DHT22;22475;51.390;7.180;2023-03-31T07:40:24;13.20;92.80
36450;DHT22;22475;51.390;7.180;2023-03-31T07:42:51;13.20;92.80
36450;DHT22;22475;51.390;7.180;2023-03-31T07:45:22;13.20;92.80
36450;DHT22;22475;51.390;7.180;2023-03-31T07:47:49;13.20;92.80
36450;DHT22;22475;51.390;7.180;2023-03-31T07:50:16;13.20;92.80
36450;DHT22;22475;51.390;7.180;2023-03-31T07:52:43;13.20;92.80
36450;DHT22;22475;51.390;7.180;2023-03-31T07:55:11;13.20;92.80
36450;DHT22;22475;51.390;7.180;2023-03-31T07:57:38;13.20;92.80
36450;DHT22;22475;51.390;7.180;2023-03-31T08:00:06;13.20;92.70
36450;DHT22;22475;51.390;7.180;2023-03-31T08:02:38;13.20;92.80
36450;DHT22;22475;51.390;7.180;2023-03-31T08:05:06;13.20;92.70
36450;DHT22;22475;51.390;7.180;2023-03-31T08:07:33;13.20;92.70
36450;DHT22;22475;51.390;7.180;2023-03-31T08:10:01;13.20;92.70
36450;DHT22;22475;51.390;7.180;2023-03-31T08:12:28;13.20;92.70
36450;DHT22;22475;51.390;7.180;2023-03-31T08:14:55;13.20;92.70
36450;DHT22;22475;51.390;7.180;2023-03-31T08:17:22;13.20;92.70
36450;DHT22;22475;51.390;7.180;2023-03-31T08:19:50;13.20;92.70
36450;DHT22;22475;51.390;7.180;2023-03-31T08:22:17;13.20;92.70
36450;DHT22;22475;51.390;7.180;2023-03-31T08:24:43;13.20;92.70
36450;DHT22;22475;51.390;7.180;2023-03-31T08:27:10;13.20;92.70
36450;DHT22;22475;51.390;7.180;2023-03-31T08:29:37;13.20;92.70
36450;DHT22;22475;51.390;7.180;2023-03-31T08:32:04;13.20;92.70
36450;DHT22;22475;51.390;7.180;2023-03-31T08:34:31;13.20;92.70
36450;DHT22;22475;51.390;7.180;2023-03-31T08:36:59;13.20;92.70
36450;DHT22;22475;51.390;7.180;2023-03-31T08:39:26;13.20;92.70
36450;DHT22;22475;51.390;7.180;2023-03-31T08:41:57;13.20;92.70
36450;DHT22;22475;51.390;7.180;2023-03-31T08:44:30;13.20;92.70
36450;DHT22;22475;51.390;7.180;2023-03-31T08:46:58;13.20;92.70
36450;DHT22;22475;51.390;7.180;2023-03-31T08:49:30;13.20;92.70
36450;DHT22;22475;51.390;7.180;2023-03-31T08:52:03;13.20;92.70
36450;DHT22;22475;51.390;7.180;2023-03-31T08:54:33;13.20;92.70
36450;DHT22;22475;51.390;7.180;2023-03-31T08:57:09;13.20;92.70
36450;DHT22;22475;51.390;7.180;2023-03-31T08:59:36;13.20;92.70
36450;DHT22;22475;51.390;7.180;2023-03-31T09:02:15;13.20;92.70
36450;DHT22;22475;51.390;7.180;2023-03-31T09:07:43;13.20;92.80
36450;DHT22;22475;51.390;7.180;2023-03-31T09:10:25;13.20;92.80
36450;DHT22;22475;51.390;7.180;2023-03-31T09:12:58;13.20;92.80
36450;DHT22;22475;51.390;7.180;2023-03-31T09:15:27;13.20;92.80
36450;DHT22;22475;51.390;7.180;2023-03-31T09:17:58;13.20;92.80
36450;DHT22;22475;51.390;7.180;2023-03-31T09:20:27;13.20;92.90
36450;DHT22;22475;51.390;7.180;2023-03-31T09:23:11;13.20;92.90
36450;DHT22;22475;51.390;7.180;2023-03-31T09:25:43;13.20;92.80
36450;DHT22;22475;51.390;7.180;2023-03-31T09:28:15;13.20;92.80
36450;DHT22;22475;51.390;7.180;2023-03-31T09:30:46;13.20;92.90
36450;DHT22;22475;51.390;7.180;2023-03-31T09:33:16;13.20;92.90
36450;DHT22;22475;51.390;7.180;2023-03-31T09:35:43;13.20;93.00
36450;DHT22;22475;51.390;7.180;2023-03-31T09:38:13;13.20;93.10
36450;DHT22;22475;51.390;7.180;2023-03-31T09:40:41;13.20;93.10
36450;DHT22;22475;51.390;7.180;2023-03-31T09:43:17;13.20;93.10
36450;DHT22;22475;51.390;7.180;2023-03-31T09:45:46;13.20;93.10
36450;DHT22;22475;51.390;7.180;2023-03-31T09:48:15;13.20;93.10
36450;DHT22;22475;51.390;7.180;2023-03-31T09:50:45;13.20;93.10
36450;DHT22;22475;51.390;7.180;2023-03-31T09:53:18;13.20;93.10
36450;DHT22;22475;51.390;7.180;2023-03-31T09:55:51;13.20;93.10
36450;DHT22;22475;51.390;7.180;2023-03-31T09:58:18;13.20;93.10
36450;DHT22;22475;51.390;7.180;2023-03-31T10:00:57;13.20;93.40
36450;DHT22;22475;51.390;7.180;2023-03-31T10:03:24;13.20;93.10
36450;DHT22;22475;51.390;7.180;2023-03-31T10:05:55;13.20;93.10
36450;DHT22;22475;51.390;7.180;2023-03-31T10:08:26;13.20;93.10
36450;DHT22;22475;51.390;7.180;2023-03-31T10:10:55;13.20;93.10
36450;DHT22;22475;51.390;7.180;2023-03-31T10:13:23;13.20;93.10
36450;DHT22;22475;51.390;7.180;2023-03-31T10:15:52;13.20;93.10
36450;DHT22;22475;51.390;7.180;2023-03-31T10:18:20;13.20;93.10
36450;DHT22;22475;51.390;7.180;2023-03-31T10:20:57;13.20;93.10
36450;DHT22;22475;51.390;7.180;2023-03-31T10:23:28;13.20;93.10
36450;DHT22;22475;51.390;7.180;2023-03-31T10:25:55;13.30;93.10
36450;DHT22;22475;51.390;7.180;2023-03-31T10:28:22;13.20;93.10
36450;DHT22;22475;51.390;7.180;2023-03-31T10:30:50;13.30;93.10
36450;DHT22;22475;51.390;7.180;2023-03-31T10:33:20;13.30;93.10
36450;DHT22;22475;51.390;7.180;2023-03-31T10:35:53;13.30;93.10
36450;DHT22;22475;51.390;7.180;2023-03-31T10:38:25;13.30;93.10
36450;DHT22;22475;51.390;7.180;2023-03-31T10:40:54;13.20;93.10
36450;DHT22;22475;51.390;7.180;2023-03-31T10:43:25;13.20;93.10
36450;DHT22;22475;51.390;7.180;2023-03-31T10:45:53;13.30;93.10
36450;DHT22;22475;51.390;7.180;2023-03-31T10:48:24;13.30;93.10
36450;DHT22;22475;51.390;7.180;2023-03-31T10:50:52;13.30;93.10
36450;DHT22;22475;51.390;7.180;2023-03-31T10:53:19;13.30;93.10
36450;DHT22;22475;51.390;7.180;2023-03-31T10:56:00;13.30;93.10
36450;DHT22;22475;51.390;7.180;2023-03-31T10:58:43;13.30;93.10
36450;DHT22;22475;51.390;7.180;2023-03-31T11:01:24;13.30;93.10
36450;DHT22;22475;51.390;7.180;2023-03-31T11:04:23;13.30;93.10
36450;DHT22;22475;51.390;7.180;2023-03-31T11:06:56;13.30;93.10
36450;DHT22;22475;51.390;7.180;2023-03-31T11:09:42;13.30;93.10
36450;DHT22;22475;51.390;7.180;2023-03-31T11:12:17;13.30;93.10
36450;DHT22;22475;51.390;7.180;2023-03-31T11:14:53;13.30;93.10
36450;DHT22;22475;51.390;7.180;2023-03-31T11:17:34;13.30;93.10
36450;DHT22;22475;51.390;7.180;2023-03-31T11:20:14;13.30;93.50
36450;DHT22;22475;51.390;7.180;2023-03-31T11:22:47;13.30;93.10
36450;DHT22;22475;51.390;7.180;2023-03-31T11:25:33;13.30;93.10
36450;DHT22;22475;51.390;7.180;2023-03-31T11:28:22;13.30;93.50
36450;DHT22;22475;51.390;7.180;2023-03-31T11:30:56;13.30;93.10
36450;DHT22;22475;51.390;7.180;2023-03-31T11:36:25;13.30;93.10
36450;DHT22;22475;51.390;7.180;2023-03-31T11:39:03;13.30;93.10
36450;DHT22;22475;51.390;7.180;2023-03-31T11:41:39;13.30;93.10
36450;DHT22;22475;51.390;7.180;2023-03-31T11:44:11;13.30;93.10
36450;DHT22;22475;51.390;7.180;2023-03-31T11:46:40;13.30;93.20
36450;DHT22;22475;51.390;7.180;2023-03-31T11:49:14;13.30;93.20
36450;DHT22;22475;51.390;7.180;2023-03-31T11:51:47;13.30;93.20
36450;DHT22;22475;51.390;7.180;2023-03-31T11:54:19;13.30;93.20
36450;DHT22;22475;51.390;7.180;2023-03-31T11:56:48;13.30;93.20
36450;DHT22;22475;51.390;7.180;2023-03-31T11:59:18;13.30;93.30
36450;DHT22;22475;51.390;7.180;2023-03-31T12:01:50;13.30;93.20
36450;DHT22;22475;51.390;7.180;2023-03-31T12:04:29;13.30;93.30
36450;DHT22;22475;51.390;7.180;2023-03-31T12:07:02;13.30;93.60
36450;DHT22;22475;51.390;7.180;2023-03-31T12:09:35;13.30;93.20
36450;DHT22;22475;51.390;7.180;2023-03-31T12:12:08;13.30;93.20
36450;DHT22;22475;51.390;7.180;2023-03-31T12:14:40;13.30;93.30
36450;DHT22;22475;51.390;7.180;2023-03-31T12:17:10;13.30;93.30
36450;DHT22;22475;51.390;7.180;2023-03-31T12:19:43;13.30;93.30
36450;DHT22;22475;51.390;7.180;2023-03-31T12:22:15;13.30;93.30
36450;DHT22;22475;51.390;7.180;2023-03-31T12:24:43;13.30;93.30
36450;DHT22;22475;51.390;7.180;2023-03-31T12:27:15;13.30;93.30
36450;DHT22;22475;51.390;7.180;2023-03-31T12:29:50;13.40;93.30
36450;DHT22;22475;51.390;7.180;2023-03-31T12:32:20;13.30;93.20
36450;DHT22;22475;51.390;7.180;2023-03-31T12:34:53;13.40;93.30
36450;DHT22;22475;51.390;7.180;2023-03-31T12:37:37;13.30;93.30
36450;DHT22;22475;51.390;7.180;2023-03-31T12:40:13;13.40;93.30
36450;DHT22;22475;51.390;7.180;2023-03-31T12:42:53;13.30;93.20
36450;DHT22;22475;51.390;7.180;2023-03-31T12:45:27;13.30;93.30
36450;DHT22;22475;51.390;7.180;2023-03-31T12:48:33;13.30;93.30
36450;DHT22;22475;51.390;7.180;2023-03-31T12:51:11;13.30;93.30
36450;DHT22;22475;51.390;7.180;2023-03-31T12:53:51;13.40;93.30
36450;DHT22;22475;51.390;7.180;2023-03-31T12:56:20;13.30;93.20
36450;DHT22;22475;51.390;7.180;2023-03-31T12:58:47;13.30;93.20
36450;DHT22;22475;51.390;7.180;2023-03-31T13:01:16;13.40;93.30
36450;DHT22;22475;51.390;7.180;2023-03-31T13:03:47;13.40;93.30
36450;DHT22;22475;51.390;7.180;2023-03-31T13:09:46;13.30;93.30
36450;DHT22;22475;51.390;7.180;2023-03-31T13:12:18;13.40;93.30
36450;DHT22;22475;51.390;7.180;2023-03-31T13:14:47;13.40;93.20
36450;DHT22;22475;51.390;7.180;2023-03-31T13:17:26;13.40;93.30
36450;DHT22;22475;51.390;7.180;2023-03-31T13:19:56;13.40;93.30
36450;DHT22;22475;51.390;7.180;2023-03-31T13:22:32;13.40;93.30
36450;DHT22;22475;51.390;7.180;2023-03-31T13:25:37;13.40;93.30
36450;DHT22;22475;51.390;7.180;2023-03-31T13:28:17;13.40;93.30
36450;DHT22;22475;51.390;7.180;2023-03-31T13:30:52;13.40;93.30
36450;DHT22;22475;51.390;7.180;2023-03-31T13:33:23;13.40;93.60
36450;DHT22;22475;51.390;7.180;2023-03-31T13:35:53;13.40;93.30
36450;DHT22;22475;51.390;7.180;2023-03-31T13:38:29;13.40;93.30
36450;DHT22;22475;51.390;7.180;2023-03-31T13:41:20;13.30;93.30
36450;DHT22;22475;51.390;7.180;2023-03-31T13:44:25;13.40;93.30
36450;DHT22;22475;51.390;7.180;2023-03-31T13:47:27;13.40;93.30
36450;DHT22;22475;51.390;7.180;2023-03-31T13:50:19;13.40;93.30
36450;DHT22;22475;51.390;7.180;2023-03-31T13:52:57;13.40;93.30
36450;DHT22;22475;51.390;7.180;2023-03-31T13:55:43;13.40;93.30
36450;DHT22;22475;51.390;7.180;2023-03-31T13:58:36;13.40;93.30
36450;DHT22;22475;51.390;7.180;2023-03-31T14:01:35;13.40;93.30
36450;DHT22;22475;51.390;7.180;2023-03-31T14:04:20;13.40;93.30
36450;DHT22;22475;51.390;7.180;2023-03-31T14:06:55;13.40;93.30
36450;DHT22;22475;51.390;7.180;2023-03-31T14:09:27;13.40;93.30
36450;DHT22;22475;51.390;7.180;2023-03-31T14:11:57;13.40;93.30
36450;DHT22;22475;51.390;7.180;2023-03-31T14:14:24;13.40;93.30
36450;DHT22;22475;51.390;7.180;2023-03-31T14:16:53;13.40;93.30
36450;DHT22;22475;51.390;7.180;2023-03-31T14:22:31;13.40;93.30
36450;DHT22;22475;51.390;7.180;2023-03-31T14:25:08;13.40;93.30
36450;DHT22;22475;51.390;7.180;2023-03-31T14:27:46;13.40;93.30
36450;DHT22;22475;51.390;7.180;2023-03-31T14:30:25;13.40;93.30
36450;DHT22;22475;51.390;7.180;2023-03-31T14:33:05;13.40;93.30
36450;DHT22;22475;51.390;7.180;2023-03-31T14:35:39;13.40;93.30
36450;DHT22;22475;51.390;7.180;2023-03-31T14:38:13;13.40;93.30
36450;DHT22;22475;51.390;7.180;2023-03-31T14:40:45;13.40;93.60
36450;DHT22;22475;51.390;7.180;2023-03-31T14:43:17;13.40;93.30
36450;DHT22;22475;51.390;7.180;2023-03-31T14:45:45;13.40;93.30
36450;DHT22;22475;51.390;7.180;2023-03-31T14:48:13;13.40;93.30
36450;DHT22;22475;51.390;7.180;2023-03-31T14:50:42;13.40;93.30
36450;DHT22;22475;51.390;7.180;2023-03-31T14:53:14;13.40;93.30
36450;DHT22;22475;51.390;7.180;2023-03-31T14:55:42;13.40;93.30
36450;DHT22;22475;51.390;7.180;2023-03-31T14:58:13;13.40;93.30
36450;DHT22;22475;51.390;7.180;2023-03-31T15:00:41;13.40;93.30
36450;DHT22;22475;51.390;7.180;2023-03-31T15:03:13;13.40;93.30
36450;DHT22;22475;51.390;7.180;2023-03-31T15:05:42;13.40;93.30
36450;DHT22;22475;51.390;7.180;2023-03-31T15:08:14;13.40;93.20
36450;DHT22;22475;51.390;7.180;2023-03-31T15:10:44;13.40;93.20
36450;DHT22;22475;51.390;7.180;2023-03-31T15:13:17;13.40;93.20
36450;DHT22;22475;51.390;7.180;2023-03-31T15:15:44;13.40;93.20
36450;DHT22;22475;51.390;7.180;2023-03-31T15:18:11;13.40;93.20
36450;DHT22;22475;51.390;7.180;2023-03-31T15:20:40;13.40;93.20
36450;DHT22;22475;51.390;7.180;2023-03-31T15:23:21;13.40;93.20
36450;DHT22;22475;51.390;7.180;2023-03-31T15:25:51;13.40;93.20
36450;DHT22;22475;51.390;7.180;2023-03-31T15:28:22;13.40;93.10
36450;DHT22;22475;51.390;7.180;2023-03-31T15:30:49;13.40;93.10
36450;DHT22;22475;51.390;7.180;2023-03-31T15:33:19;13.40;93.10
36450;DHT22;22475;51.390;7.180;2023-03-31T15:35:47;13.50;93.20
36450;DHT22;22475;51.390;7.180;2023-03-31T15:38:15;13.40;93.10
36450;DHT22;22475;51.390;7.180;2023-03-31T15:40:49;13.40;93.10
36450;DHT22;22475;51.390;7.180;2023-03-31T15:43:18;13.40;93.10
36450;DHT22;22475;51.390;7.180;2023-03-31T15:45:53;13.40;93.10
36450;DHT22;22475;51.390;7.180;2023-03-31T15:48:24;13.50;93.20
36450;DHT22;22475;51.390;7.180;2023-03-31T15:50:58;13.40;93.10
36450;DHT22;22475;51.390;7.180;2023-03-31T15:53:30;13.40;93.10
36450;DHT22;22475;51.390;7.180;2023-03-31T15:55:59;13.50;93.20
36450;DHT22;22475;51.390;7.180;2023-03-31T15:58:45;13.40;93.10
36450;DHT22;22475;51.390;7.180;2023-03-31T16:01:13;13.40;93.10
36450;DHT22;22475;51.390;7.180;2023-03-31T16:03:42;13.40;93.10
36450;DHT22;22475;51.390;7.180;2023-03-31T16:06:16;13.50;93.50
36450;DHT22;22475;51.390;7.180;2023-03-31T16:08:47;13.50;93.20
36450;DHT22;22475;51.390;7.180;2023-03-31T16:11:19;13.50;93.20
36450;DHT22;22475;51.390;7.180;2023-03-31T16:13:52;13.50;93.20
36450;DHT22;22475;51.390;7.180;2023-03-31T16:16:22;13.40;93.10